Time;durP1;ratioP1;P1;durP2;ratioP2;P2;SDS_P1;SDS_P2;PMS_P1;PMS_P2;Temp;Humidity;BMP_temperature;BMP_pressure;BME280_temperature;BME280_humidity;BME280_pressure;Samples;Min_cycle;Max_cycle;Signal;HPM_P1;HPM_P2
2022/03/20 00:01:54;;;;;;;8.20;2.88;;;;;;;6.73;58.51;103218.09;5286550;28;20043;-71
2022/03/20 00:04:26;;;;;;;7.28;3.08;;;;;;;6.68;59.12;103219.16;5284980;28;20040;-71
2022/03/20 00:06:57;;;;;;;7.20;3.38;;;;;;;6.68;58.67;103211.34;5285227;28;20115;-71
2022/03/20 00:09:29;;;;;;;7.80;3.35;;;;;;;6.65;59.08;103194.06;5284248;28;20028;-71
2022/03/20 00:12:01;;;;;;;6.47;3.10;;;;;;;6.61;59.15;103194.19;5282836;28;20028;-71
2022/03/20 00:14:32;;;;;;;7.57;3.58;;;;;;;6.55;59.68;103195.22;5281626;28;20036;-71
2022/03/20 00:17:03;;;;;;;6.97;3.40;;;;;;;6.52;60.17;103200.53;5287029;28;20139;-71
2022/03/20 00:19:35;;;;;;;9.40;3.60;;;;;;;6.49;60.24;103200.63;5283323;28;20024;-71
2022/03/20 00:22:07;;;;;;;8.75;4.28;;;;;;;6.49;60.17;103192.81;5284372;28;20115;-71
2022/03/20 00:24:42;;;;;;;8.27;4.13;;;;;;;6.45;60.92;103189.44;5285586;28;20016;-71
2022/03/20 00:27:14;;;;;;;9.70;4.63;;;;;;;6.36;61.41;103181.91;5285077;28;20024;-71
2022/03/20 00:29:45;;;;;;;6.30;4.10;;;;;;;6.40;61.74;103183.50;5285241;28;20365;-71
2022/03/20 00:32:19;;;;;;;9.02;4.57;;;;;;;6.34;61.69;103173.31;5286668;28;20591;-71
2022/03/20 00:34:56;;;;;;;8.82;4.18;;;;;;;6.35;61.75;103180.19;5285091;28;20046;-71
2022/03/20 00:37:29;;;;;;;6.60;4.55;;;;;;;6.28;62.35;103166.50;5283550;28;20058;-71
2022/03/20 00:40:00;;;;;;;9.55;4.38;;;;;;;6.25;62.05;103155.31;5285225;28;20036;-71
2022/03/20 00:42:31;;;;;;;13.70;4.88;;;;;;;6.27;62.15;103153.56;5280057;28;20039;-70
2022/03/20 00:45:04;;;;;;;7.32;4.40;;;;;;;6.21;61.71;103136.38;5284913;28;20028;-71
2022/03/20 00:47:36;;;;;;;7.38;4.45;;;;;;;6.17;62.07;103132.13;5287439;28;20051;-71
2022/03/20 00:50:07;;;;;;;9.70;4.90;;;;;;;6.16;62.24;103140.00;5283211;28;20036;-71
2022/03/20 00:52:39;;;;;;;9.55;4.38;;;;;;;6.14;62.19;103136.56;5287502;28;20485;-71
2022/03/20 00:55:10;;;;;;;8.23;4.80;;;;;;;6.06;62.70;103134.19;5288661;28;20063;-70
2022/03/20 00:57:42;;;;;;;9.57;4.75;;;;;;;6.05;62.80;103133.34;5284240;28;20031;-71
2022/03/20 01:00:14;;;;;;;9.95;4.97;;;;;;;5.99;63.54;103138.75;5285822;28;20502;-71
2022/03/20 01:02:46;;;;;;;11.63;5.50;;;;;;;6.03;62.23;103123.91;5284221;28;20460;-71
2022/03/20 01:05:17;;;;;;;8.93;4.95;;;;;;;5.94;63.53;103130.19;5281397;28;20035;-71
2022/03/20 01:07:49;;;;;;;10.90;5.30;;;;;;;5.90;64.48;103123.34;5286891;28;20030;-70
2022/03/20 01:10:20;;;;;;;9.23;5.88;;;;;;;5.90;64.43;103125.09;5284910;28;20556;-71
2022/03/20 01:12:51;;;;;;;8.85;5.63;;;;;;;5.85;64.38;103104.44;5285643;28;20099;-71
2022/03/20 01:15:23;;;;;;;10.73;5.30;;;;;;;5.83;64.28;103114.00;5287567;28;20036;-71
2022/03/20 01:17:55;;;;;;;8.70;5.82;;;;;;;5.78;65.19;103111.53;5285173;28;20024;-71
2022/03/20 01:20:26;;;;;;;11.27;5.72;;;;;;;5.78;64.85;103110.69;5285642;28;20024;-71
2022/03/20 01:22:58;;;;;;;11.43;5.88;;;;;;;5.73;65.46;103112.59;5281122;28;20028;-71
2022/03/20 01:25:30;;;;;;;12.15;6.28;;;;;;;5.68;64.22;103104.03;5282171;28;20039;-71
2022/03/20 01:28:02;;;;;;;9.02;6.32;;;;;;;5.66;64.28;103092.84;5282724;28;20028;-71
2022/03/20 01:30:33;;;;;;;12.45;6.55;;;;;;;5.61;64.42;103088.63;5285533;28;20020;-71
2022/03/20 01:33:04;;;;;;;10.80;6.25;;;;;;;5.64;64.82;103084.22;5284569;28;20418;-71
2022/03/20 01:35:36;;;;;;;10.60;6.53;;;;;;;5.58;65.29;103087.84;5284590;28;20028;-71
2022/03/20 01:38:08;;;;;;;12.40;6.55;;;;;;;5.60;65.94;103075.66;5282441;28;20458;-71
2022/03/20 01:40:39;;;;;;;11.10;7.18;;;;;;;5.52;65.26;103070.66;5285296;28;20046;-71
2022/03/20 01:43:10;;;;;;;13.15;7.80;;;;;;;5.49;65.46;103060.38;5285606;28;20012;-71
2022/03/20 01:45:42;;;;;;;12.65;8.40;;;;;;;5.48;65.42;103063.84;5285449;28;20116;-71
2022/03/20 01:48:14;;;;;;;12.75;7.28;;;;;;;5.46;65.59;103057.84;5288050;28;20493;-71
2022/03/20 01:50:45;;;;;;;12.68;8.25;;;;;;;5.45;64.67;103050.94;5284503;28;20036;-71
2022/03/20 01:53:19;;;;;;;13.90;8.38;;;;;;;5.39;65.11;103045.91;5287227;28;20021;-71
2022/03/20 01:55:51;;;;;;;13.13;8.43;;;;;;;5.37;65.87;103047.69;5286876;28;20024;-71
2022/03/20 01:58:22;;;;;;;12.50;8.40;;;;;;;5.35;64.94;103041.72;5284381;28;20052;-71
2022/03/20 02:00:53;;;;;;;13.35;9.40;;;;;;;5.38;65.10;103041.63;5285609;28;20028;-71
2022/03/20 02:03:25;;;;;;;14.70;9.77;;;;;;;5.33;65.35;103040.88;5284442;28;20040;-71
2022/03/20 02:05:57;;;;;;;15.18;10.30;;;;;;;5.27;65.09;103039.31;5284660;28;20485;-71
2022/03/20 02:08:30;;;;;;;17.23;10.32;;;;;;;5.29;65.49;103034.91;5281202;28;20036;-70
2022/03/20 02:11:01;;;;;;;15.02;10.48;;;;;;;5.25;65.57;103022.91;5284550;28;20042;-70
2022/03/20 02:13:34;;;;;;;14.90;10.70;;;;;;;5.29;64.68;103024.53;5283108;28;20504;-70
2022/03/20 02:16:05;;;;;;;16.63;11.50;;;;;;;5.23;64.97;103026.47;5284510;28;20035;-71
2022/03/20 02:18:37;;;;;;;18.38;12.38;;;;;;;5.22;65.68;103011.72;5284578;28;20297;-71
2022/03/20 02:21:09;;;;;;;15.43;12.00;;;;;;;5.19;65.89;103014.41;5286756;28;20046;-71
2022/03/20 02:23:42;;;;;;;16.30;12.05;;;;;;;5.16;65.10;103017.13;5284188;28;20028;-71
2022/03/20 02:26:13;;;;;;;15.05;11.73;;;;;;;5.13;65.13;103008.50;5290543;28;20238;-71
2022/03/20 02:28:44;;;;;;;17.67;11.82;;;;;;;5.15;64.90;103008.44;5289739;28;20028;-71
2022/03/20 02:31:15;;;;;;;17.73;12.32;;;;;;;5.11;64.93;103004.22;5289853;28;20032;-71
2022/03/20 02:33:47;;;;;;;18.08;12.55;;;;;;;5.10;64.36;102997.34;5285531;28;20021;-71
2022/03/20 02:36:18;;;;;;;19.67;13.00;;;;;;;5.10;63.89;102997.34;5288111;28;20020;-71
2022/03/20 02:38:49;;;;;;;17.02;13.55;;;;;;;5.07;65.22;102987.88;5285656;28;20016;-71
2022/03/20 02:41:21;;;;;;;20.55;13.48;;;;;;;4.97;64.76;102991.63;5282678;28;20039;-71
2022/03/20 02:43:52;;;;;;;17.02;13.65;;;;;;;5.00;64.84;102994.16;5287621;28;20031;-71
2022/03/20 02:46:24;;;;;;;22.38;15.20;;;;;;;5.02;64.92;102992.34;5286649;28;20127;-71
2022/03/20 02:48:55;;;;;;;18.13;13.55;;;;;;;4.98;64.39;102975.16;5287544;28;20024;-71
2022/03/20 02:51:27;;;;;;;18.70;14.73;;;;;;;4.92;65.08;102979.66;5286917;28;20032;-70
2022/03/20 02:53:58;;;;;;;20.85;13.60;;;;;;;4.96;63.98;102969.13;5289494;28;20115;-70
2022/03/20 02:56:30;;;;;;;19.65;13.45;;;;;;;4.96;64.36;102973.47;5290646;28;20032;-71
2022/03/20 02:59:02;;;;;;;18.45;14.18;;;;;;;4.94;65.07;102980.47;5287670;28;20496;-71
2022/03/20 03:01:33;;;;;;;18.93;14.60;;;;;;;4.94;64.68;102978.72;5288479;28;20035;-71
2022/03/20 03:04:05;;;;;;;17.42;14.07;;;;;;;4.90;64.69;102964.13;5286072;28;20443;-71
2022/03/20 03:06:37;;;;;;;20.02;14.25;;;;;;;4.90;63.83;102971.91;5284500;28;20452;-71
2022/03/20 03:11:58;;;;;;;18.85;14.65;;;;;;;4.84;64.90;102956.47;5289710;28;20385;-70
2022/03/20 03:17:27;;;;;;;23.65;16.17;;;;;;;4.82;64.50;102947.91;5285881;28;20028;-70
2022/03/20 03:19:58;;;;;;;21.15;15.98;;;;;;;4.76;64.08;102951.50;5287315;28;20024;-70
2022/03/20 03:22:30;;;;;;;19.13;14.93;;;;;;;4.76;63.90;102950.63;5286743;28;20029;-70
2022/03/20 03:25:01;;;;;;;26.15;16.35;;;;;;;4.74;64.09;102942.91;5288668;28;20021;-70
2022/03/20 03:27:33;;;;;;;23.63;16.08;;;;;;;4.74;63.92;102939.47;5288082;28;20024;-71
2022/03/20 03:30:05;;;;;;;23.17;16.42;;;;;;;4.69;64.89;102939.56;5289042;28;20032;-70
2022/03/20 03:32:36;;;;;;;22.55;15.77;;;;;;;4.70;64.58;102937.81;5285394;28;20054;-71
2022/03/20 03:38:00;;;;;;;23.30;16.38;;;;;;;4.69;64.98;102923.97;5286768;28;20485;-70
2022/03/20 03:40:32;;;;;;;21.25;16.23;;;;;;;4.68;64.48;102917.09;5281858;28;20028;-70
2022/03/20 03:43:04;;;;;;;24.48;18.48;;;;;;;4.67;64.53;102918.00;5285456;28;20035;-71
2022/03/20 03:45:39;;;;;;;24.25;17.98;;;;;;;4.63;64.79;102914.63;5289608;28;20031;-70
2022/03/20 03:48:11;;;;;;;23.02;17.23;;;;;;;4.68;65.18;102903.25;5287812;28;20035;-70
2022/03/20 03:50:45;;;;;;;23.70;17.75;;;;;;;4.57;65.11;102891.41;5284356;28;20392;-70
2022/03/20 03:53:16;;;;;;;23.63;16.85;;;;;;;4.60;64.75;102901.72;5287096;28;20043;-70
2022/03/20 03:55:48;;;;;;;25.27;17.20;;;;;;;4.50;64.95;102894.22;5286356;28;20397;-70
2022/03/20 03:58:19;;;;;;;24.23;17.30;;;;;;;4.47;65.78;102900.34;5285419;28;20059;-70
2022/03/20 04:00:50;;;;;;;24.00;17.10;;;;;;;4.47;66.12;102891.69;5289840;28;20107;-70
2022/03/20 04:03:22;;;;;;;24.17;17.70;;;;;;;4.40;65.57;102896.22;5286331;28;20056;-70
2022/03/20 04:05:54;;;;;;;22.80;17.38;;;;;;;4.36;66.14;102890.25;5282868;28;20028;-70
2022/03/20 04:08:26;;;;;;;23.98;17.60;;;;;;;4.33;66.64;102886.88;5289089;28;20155;-70
2022/03/20 04:10:57;;;;;;;22.25;16.17;;;;;;;4.32;66.20;102877.41;5279215;28;20123;-70
2022/03/20 04:13:29;;;;;;;24.85;18.08;;;;;;;4.28;66.77;102880.94;5287100;28;20064;-70
2022/03/20 04:16:00;;;;;;;22.85;16.80;;;;;;;4.27;66.51;102874.91;5285555;28;20032;-70
2022/03/20 04:18:31;;;;;;;21.88;16.58;;;;;;;4.21;66.72;102862.09;5282609;28;20028;-70
2022/03/20 04:21:04;;;;;;;22.70;16.92;;;;;;;4.19;66.82;102858.69;5284919;28;20070;-71
2022/03/20 04:23:49;;;;;;;23.83;18.13;;;;;;;4.14;67.60;102851.03;5284993;28;20103;-70
2022/03/20 04:26:22;;;;;;;24.15;17.33;;;;;;;4.15;67.55;102857.06;5284372;28;20398;-70
2022/03/20 04:28:53;;;;;;;23.75;17.15;;;;;;;4.05;67.54;102846.09;5287576;28;20084;-70
2022/03/20 04:31:25;;;;;;;23.63;18.00;;;;;;;4.03;67.71;102841.81;5286542;28;20115;-70
2022/03/20 04:33:57;;;;;;;24.75;16.52;;;;;;;3.96;68.19;102833.34;5284835;28;20020;-70
2022/03/20 04:36:28;;;;;;;25.38;17.88;;;;;;;3.96;68.83;102828.16;5286921;28;20021;-70
2022/03/20 04:39:01;;;;;;;25.00;18.33;;;;;;;3.96;68.42;102827.31;5286229;28;20046;-71
2022/03/20 04:41:32;;;;;;;23.42;17.80;;;;;;;3.96;68.39;102824.72;5286496;28;20035;-70
2022/03/20 04:44:06;;;;;;;23.77;17.80;;;;;;;3.87;68.84;102824.06;5287351;28;20032;-70
2022/03/20 04:46:39;;;;;;;22.80;17.83;;;;;;;3.88;68.91;102833.53;5284831;28;20032;-71
2022/03/20 05:00:31;;;;;;;26.52;18.25;;;;;;;3.72;69.48;102810.63;5283903;28;20049;-70
2022/03/20 05:03:03;;;;;;;24.10;18.02;;;;;;;3.71;69.10;102798.53;5288142;28;20016;-70
2022/03/20 05:05:36;;;;;;;27.23;20.08;;;;;;;3.74;68.69;102801.06;5278653;28;20391;-70
2022/03/20 05:08:08;;;;;;;24.67;18.63;;;;;;;3.65;69.44;102795.22;5282675;28;20203;-70
2022/03/20 05:13:30;;;;;;;23.50;18.48;;;;;;;3.64;69.04;102795.25;5287981;28;20024;-70
2022/03/20 05:16:01;;;;;;;25.40;18.45;;;;;;;3.63;69.61;102798.72;5283864;28;20070;-70
2022/03/20 05:18:33;;;;;;;25.30;18.17;;;;;;;3.63;70.07;102786.59;5285924;28;20476;-70
2022/03/20 05:21:04;;;;;;;23.83;17.77;;;;;;;3.63;69.37;102788.34;5284507;28;20031;-70
2022/03/20 05:23:35;;;;;;;28.77;18.90;;;;;;;3.61;70.61;102784.97;5285182;28;20052;-70
2022/03/20 05:26:07;;;;;;;25.80;19.52;;;;;;;3.57;69.71;102783.34;5286229;28;20131;-70
2022/03/20 05:28:38;;;;;;;24.27;18.60;;;;;;;3.56;69.71;102791.97;5285997;28;20028;-70
2022/03/20 05:31:11;;;;;;;26.08;18.40;;;;;;;3.55;70.12;102783.34;5287323;28;20078;-70
2022/03/20 05:33:43;;;;;;;24.42;18.00;;;;;;;3.51;69.38;102779.13;5288408;28;20024;-70
2022/03/20 05:36:15;;;;;;;26.33;18.83;;;;;;;3.52;70.31;102779.97;5283932;28;20056;-70
2022/03/20 05:38:46;;;;;;;22.13;17.80;;;;;;;3.51;69.41;102780.88;5281890;28;20025;-70
2022/03/20 05:44:11;;;;;;;26.45;17.77;;;;;;;3.45;69.40;102766.34;5287974;28;20036;-70
2022/03/20 05:46:48;;;;;;;24.88;18.05;;;;;;;3.50;70.12;102764.47;5285543;28;20020;-70
2022/03/20 05:49:22;;;;;;;24.08;17.50;;;;;;;3.38;70.47;102755.28;5285250;28;20032;-70
2022/03/20 05:51:57;;;;;;;23.00;17.80;;;;;;;3.38;70.22;102746.66;5282898;28;20439;-70
2022/03/20 05:54:28;;;;;;;24.55;19.02;;;;;;;3.36;70.18;102753.59;5283586;28;20028;-70
2022/03/20 05:59:53;;;;;;;24.23;18.55;;;;;;;3.33;69.19;102754.53;5286895;28;20049;-70
2022/03/20 06:02:25;;;;;;;25.50;17.98;;;;;;;3.35;69.39;102757.09;5291146;28;20035;-71
2022/03/20 06:04:56;;;;;;;25.83;16.90;;;;;;;3.41;69.41;102754.34;5287198;28;20393;-70
2022/03/20 06:07:28;;;;;;;22.73;17.38;;;;;;;3.39;69.78;102751.78;5292448;28;20493;-70
2022/03/20 06:09:59;;;;;;;23.83;18.67;;;;;;;3.35;68.71;102747.56;5289301;28;20024;-70
2022/03/20 06:12:30;;;;;;;26.80;18.80;;;;;;;3.42;68.77;102748.28;5289613;28;20444;-70
2022/03/20 06:15:01;;;;;;;24.25;17.67;;;;;;;3.44;68.11;102749.06;5283545;28;20031;-70
2022/03/20 06:17:34;;;;;;;27.20;18.40;;;;;;;3.42;68.01;102743.94;5289250;28;20056;-70
2022/03/20 06:20:07;;;;;;;25.58;18.02;;;;;;;3.45;67.38;102747.34;5289746;28;20055;-70
2022/03/20 06:22:38;;;;;;;25.17;17.23;;;;;;;3.43;65.73;102744.78;5291240;28;20596;-70
2022/03/20 06:25:11;;;;;;;24.83;17.40;;;;;;;3.49;65.87;102742.06;5287610;28;20117;-70
2022/03/20 06:27:46;;;;;;;24.00;18.20;;;;;;;3.51;66.68;102748.03;5290273;28;20089;-70
2022/03/20 06:30:20;;;;;;;21.75;16.48;;;;;;;3.47;65.90;102741.22;5287254;28;20035;-70
2022/03/20 06:32:52;;;;;;;;;;;;;;;3.85;64.11;102747.19;5285211;28;20078;-71
2022/03/20 06:35:23;;;;;;;22.50;16.35;;;;;;;3.59;64.32;102753.03;5290089;28;19990;-71
2022/03/20 06:37:54;;;;;;;24.55;17.75;;;;;;;3.63;64.85;102744.28;5288853;28;20024;-70
2022/03/20 06:40:26;;;;;;;24.83;18.08;;;;;;;3.69;64.16;102738.97;5289085;28;20062;-70
2022/03/20 06:42:57;;;;;;;27.00;17.83;;;;;;;3.73;64.04;102738.00;5286799;28;20474;-71
2022/03/20 06:45:28;;;;;;;24.30;16.50;;;;;;;3.82;62.85;102716.16;5287633;28;20081;-70
2022/03/20 06:48:00;;;;;;;24.73;16.90;;;;;;;3.91;63.19;102723.69;5289484;28;20431;-70
2022/03/20 06:50:31;;;;;;;23.00;16.27;;;;;;;3.97;62.39;102720.91;5285759;28;20081;-70
2022/03/20 06:53:04;;;;;;;22.90;16.10;;;;;;;4.05;62.64;102721.59;5287381;28;20021;-70
2022/03/20 06:55:35;;;;;;;21.27;16.13;;;;;;;4.13;61.36;102713.59;5282114;28;20072;-70
2022/03/20 06:58:06;;;;;;;24.05;16.58;;;;;;;4.24;60.97;102718.47;5285042;28;20110;-71
2022/03/20 07:00:38;;;;;;;22.77;16.15;;;;;;;4.33;61.56;102707.84;5283627;28;20024;-70
2022/03/20 07:03:10;;;;;;;24.02;18.00;;;;;;;4.34;60.98;102704.34;5285794;28;20032;-71
2022/03/20 07:05:41;;;;;;;20.98;16.38;;;;;;;4.45;60.15;102707.47;5284254;28;20031;-71
2022/03/20 07:08:13;;;;;;;22.85;16.20;;;;;;;4.51;60.14;102707.31;5278824;28;20398;-70
2022/03/20 07:10:44;;;;;;;23.65;16.45;;;;;;;4.54;58.88;102702.00;5282308;28;20648;-71
2022/03/20 07:16:06;;;;;;;22.00;15.18;;;;;;;4.65;58.22;102704.28;5279057;28;20536;-70
2022/03/20 07:18:37;;;;;;;20.38;15.90;;;;;;;4.72;57.47;102695.41;5286513;28;20021;-70
2022/03/20 07:21:08;;;;;;;23.23;16.20;;;;;;;4.75;58.06;102684.09;5283699;28;20774;-70
2022/03/20 07:23:40;;;;;;;20.25;15.05;;;;;;;4.79;57.31;102672.72;5281911;28;20059;-70
2022/03/20 07:31:51;;;;;;;19.08;14.40;;;;;;;4.96;53.48;102662.63;5282514;28;20036;-70
2022/03/20 07:34:22;;;;;;;21.15;15.30;;;;;;;5.00;55.32;102672.03;5285002;28;20382;-71
2022/03/20 07:36:54;;;;;;;21.05;15.23;;;;;;;4.97;54.34;102672.13;5286266;28;20093;-70
2022/03/20 07:39:25;;;;;;;21.42;15.40;;;;;;;5.09;53.52;102674.34;5279753;28;20043;-70
2022/03/20 07:41:57;;;;;;;17.70;13.95;;;;;;;5.09;53.05;102669.13;5281295;28;20028;-70
2022/03/20 07:44:32;;;;;;;22.45;15.65;;;;;;;5.10;52.93;102675.19;5290324;28;20456;-70
2022/03/20 07:47:08;;;;;;;20.05;14.65;;;;;;;5.13;53.31;102683.72;5277914;28;20039;-71
2022/03/20 07:49:40;;;;;;;21.02;15.07;;;;;;;5.15;52.34;102680.22;5288174;28;20469;-71
2022/03/20 07:52:11;;;;;;;21.40;14.70;;;;;;;5.11;52.03;102667.34;5280650;28;20085;-71
2022/03/20 07:54:45;;;;;;;19.85;13.80;;;;;;;5.18;51.45;102667.13;5283228;28;20073;-70
2022/03/20 07:57:17;;;;;;;22.15;15.73;;;;;;;5.20;50.70;102667.94;5282460;28;20028;-71
2022/03/20 07:59:48;;;;;;;21.08;14.73;;;;;;;5.24;50.09;102670.38;5285124;28;20437;-72
2022/03/20 08:02:19;;;;;;;21.48;15.23;;;;;;;5.19;50.95;102684.41;5278381;28;20112;-70
2022/03/20 08:04:51;;;;;;;18.77;14.40;;;;;;;5.25;51.09;102669.47;5272674;28;20115;-70
2022/03/20 08:07:24;;;;;;;21.17;15.23;;;;;;;5.26;51.68;102667.72;5277697;28;20057;-70
2022/03/20 08:09:55;;;;;;;19.48;14.98;;;;;;;5.18;51.27;102646.34;5282435;28;20760;-71
2022/03/20 08:12:26;;;;;;;20.58;15.07;;;;;;;5.30;50.81;102661.53;5280822;28;20032;-71
2022/03/20 08:14:58;;;;;;;21.48;15.63;;;;;;;5.27;50.74;102666.84;5278879;28;20040;-71
2022/03/20 08:17:30;;;;;;;19.00;14.38;;;;;;;5.26;49.79;102663.38;5279147;28;20035;-70
2022/03/20 08:20:02;;;;;;;21.35;14.98;;;;;;;5.24;50.39;102661.75;5276747;28;20400;-71
2022/03/20 08:22:33;;;;;;;22.65;14.68;;;;;;;5.29;50.67;102668.47;5291426;28;20035;-71
2022/03/20 08:25:07;;;;;;;20.85;15.02;;;;;;;5.32;50.75;102665.78;5279015;28;20422;-71
2022/03/20 08:27:45;;;;;;;20.52;14.30;;;;;;;5.42;49.87;102660.25;5279752;28;20035;-70
2022/03/20 08:30:17;;;;;;;22.52;15.27;;;;;;;5.37;50.53;102657.81;5277727;28;20060;-70
2022/03/20 08:32:52;;;;;;;23.75;14.35;;;;;;;5.41;49.56;102637.78;5280125;28;20131;-71
2022/03/20 08:35:25;;;;;;;19.40;14.35;;;;;;;5.45;50.95;102644.56;5276939;28;20032;-71
2022/03/20 08:37:56;;;;;;;20.23;15.05;;;;;;;5.50;49.87;102650.47;5279338;28;20062;-71
2022/03/20 08:40:27;;;;;;;19.85;14.70;;;;;;;5.52;49.17;102648.66;5287032;28;20508;-71
2022/03/20 08:42:59;;;;;;;21.65;14.73;;;;;;;5.52;50.94;102652.09;5281667;28;20024;-71
2022/03/20 08:45:33;;;;;;;18.80;14.30;;;;;;;5.54;50.87;102641.66;5279351;28;20039;-70
2022/03/20 08:48:04;;;;;;;19.83;14.57;;;;;;;5.56;50.32;102642.44;5279962;28;20300;-70
2022/03/20 08:50:36;;;;;;;20.55;14.95;;;;;;;5.60;53.27;102646.63;5278596;28;20894;-70
2022/03/20 08:53:07;;;;;;;21.02;15.18;;;;;;;5.58;50.33;102644.09;5273396;28;20024;-70
2022/03/20 08:55:39;;;;;;;19.90;15.10;;;;;;;5.64;51.66;102645.63;5281842;28;20044;-71
2022/03/20 08:58:11;;;;;;;21.67;15.55;;;;;;;5.63;50.55;102649.13;5280109;28;20386;-71
2022/03/20 09:00:42;;;;;;;20.17;14.73;;;;;;;5.68;48.40;102642.00;5268527;28;20042;-70
2022/03/20 09:03:13;;;;;;;22.10;14.40;;;;;;;5.69;49.89;102650.69;5278064;28;20412;-71
2022/03/20 09:05:45;;;;;;;19.73;14.95;;;;;;;5.71;50.95;102648.84;5276375;28;20060;-71
2022/03/20 09:08:16;;;;;;;19.60;14.77;;;;;;;5.77;49.69;102641.69;5279157;28;20043;-71
2022/03/20 09:10:53;;;;;;;19.88;14.60;;;;;;;5.86;47.71;102630.09;5277342;28;20082;-71
2022/03/20 09:13:25;;;;;;;19.95;14.73;;;;;;;5.82;50.40;102628.50;5279406;28;20555;-71
2022/03/20 09:19:07;;;;;;;18.35;13.43;;;;;;;6.07;49.16;102623.31;5280682;28;20040;-71
2022/03/20 09:21:38;;;;;;;19.42;14.80;;;;;;;6.32;49.87;102615.41;5280408;28;20471;-70
2022/03/20 09:24:09;;;;;;;22.10;15.45;;;;;;;6.63;48.63;102612.47;5280816;28;20020;-73
2022/03/20 09:26:41;;;;;;;22.05;15.40;;;;;;;6.92;47.28;102602.59;5282333;28;20027;-70
2022/03/20 09:29:14;;;;;;;21.25;16.10;;;;;;;7.15;46.60;102591.22;5277120;28;20477;-73
2022/03/20 09:31:50;;;;;;;21.42;15.25;;;;;;;7.29;45.78;102591.47;5281390;28;20102;-69
2022/03/20 09:34:21;;;;;;;22.70;15.43;;;;;;;7.33;45.66;102580.00;5279074;28;20019;-70
2022/03/20 09:36:52;;;;;;;22.40;16.33;;;;;;;7.39;45.40;102579.75;5285930;28;20038;-70
2022/03/20 09:39:26;;;;;;;23.80;15.95;;;;;;;7.32;45.31;102596.56;5283215;28;20041;-70
2022/03/20 09:41:58;;;;;;;22.40;15.88;;;;;;;7.20;44.66;102581.47;5281337;28;20046;-72
2022/03/20 09:44:33;;;;;;;21.98;15.55;;;;;;;7.24;45.16;102569.97;5267211;28;20032;-72
2022/03/20 09:47:12;;;;;;;24.25;16.13;;;;;;;7.36;46.11;102559.00;5278044;28;20042;-70
2022/03/20 09:49:45;;;;;;;19.27;15.15;;;;;;;7.50;45.85;102561.88;5281902;28;20106;-72
2022/03/20 09:52:17;;;;;;;20.27;15.00;;;;;;;7.54;44.24;102567.78;5280805;28;20029;-71
2022/03/20 09:54:49;;;;;;;21.52;16.38;;;;;;;7.66;45.53;102569.84;5279841;28;20100;-73
2022/03/20 09:57:28;;;;;;;20.63;15.65;;;;;;;7.78;45.59;102563.22;5281639;28;20028;-70
2022/03/20 10:00:03;;;;;;;23.00;16.15;;;;;;;7.80;45.23;102583.13;5281237;28;20047;-69
2022/03/20 10:02:35;;;;;;;22.67;17.27;;;;;;;7.84;44.78;102581.22;5274725;28;20520;-70
2022/03/20 10:05:08;;;;;;;22.42;15.55;;;;;;;7.93;45.42;102583.41;5278610;28;20024;-69
2022/03/20 10:07:43;;;;;;;23.38;17.30;;;;;;;7.91;45.54;102576.56;5280019;28;20082;-70
2022/03/20 10:10:28;;;;;;;22.85;16.48;;;;;;;8.01;45.58;102570.00;5278178;28;20039;-71
2022/03/20 10:13:00;;;;;;;23.52;17.05;;;;;;;7.93;43.58;102574.72;5282953;28;20489;-69
2022/03/20 10:15:37;;;;;;;22.13;17.10;;;;;;;7.97;43.98;102571.91;5277354;28;20023;-69
2022/03/20 10:18:17;;;;;;;21.67;17.00;;;;;;;8.05;44.48;102579.38;5279009;28;20024;-68
2022/03/20 10:21:01;;;;;;;22.60;16.63;;;;;;;8.05;43.91;102575.00;5286637;28;20020;-70
2022/03/20 10:23:36;;;;;;;24.42;17.35;;;;;;;7.99;45.13;102567.47;5277578;28;20036;-72
2022/03/20 10:26:15;;;;;;;22.75;17.80;;;;;;;8.03;44.02;102568.16;5274434;28;20036;-71
2022/03/20 10:28:49;;;;;;;24.88;18.55;;;;;;;7.99;44.73;102571.81;5280244;28;20539;-71
2022/03/20 10:31:20;;;;;;;25.80;20.65;;;;;;;7.95;44.15;102565.06;5277814;28;20024;-72
2022/03/20 10:34:09;;;;;;;27.52;20.27;;;;;;;8.22;45.13;102562.91;5277924;28;20046;-70
2022/03/20 10:36:42;;;;;;;26.52;19.30;;;;;;;8.22;44.83;102557.69;5278581;28;20030;-70
2022/03/20 10:39:16;;;;;;;27.20;21.10;;;;;;;8.38;44.88;102569.16;5279713;28;20028;-71
2022/03/20 10:41:49;;;;;;;29.38;20.70;;;;;;;8.53;49.65;102585.84;5279219;28;20028;-71
2022/03/20 10:44:25;;;;;;;27.80;21.55;;;;;;;8.59;50.74;102571.63;5282771;28;20098;-69
2022/03/20 10:46:58;;;;;;;27.63;21.95;;;;;;;8.19;52.45;102569.16;5284448;28;20024;-71
2022/03/20 10:49:31;;;;;;;26.63;21.58;;;;;;;8.41;52.63;102569.00;5280972;28;20114;-71
2022/03/20 10:52:06;;;;;;;26.55;21.75;;;;;;;8.24;52.66;102563.69;5284014;28;20390;-71
2022/03/20 10:54:42;;;;;;;30.95;22.60;;;;;;;8.20;53.07;102570.00;5287710;28;20027;-70
2022/03/20 10:57:15;;;;;;;27.58;22.23;;;;;;;8.17;54.55;102567.50;5279027;28;20431;-71
2022/03/20 11:00:01;;;;;;;26.33;21.50;;;;;;;8.40;53.76;102577.75;5283529;28;20071;-70
2022/03/20 11:02:36;;;;;;;29.35;21.98;;;;;;;8.43;54.96;102581.97;5284317;28;20048;-72
2022/03/20 11:05:08;;;;;;;30.00;23.70;;;;;;;8.21;56.62;102571.66;5279586;28;20543;-69
2022/03/20 11:07:40;;;;;;;27.03;22.30;;;;;;;8.39;57.40;102583.88;5279643;28;20119;-71
2022/03/20 11:10:11;;;;;;;27.50;22.08;;;;;;;8.20;57.73;102585.66;5283415;28;20983;-67
2022/03/20 11:12:44;;;;;;;32.90;22.48;;;;;;;8.02;59.79;102585.56;5286144;28;20395;-72
2022/03/20 11:15:15;;;;;;;26.40;22.73;;;;;;;7.94;60.46;102582.47;5281366;28;20021;-67
2022/03/20 11:17:50;;;;;;;32.33;24.58;;;;;;;7.95;61.56;102589.38;5287231;28;20613;-70
2022/03/20 11:20:23;;;;;;;28.73;23.02;;;;;;;8.00;61.18;102594.41;5282542;28;20510;-69
2022/03/20 11:22:55;;;;;;;29.85;23.33;;;;;;;8.01;61.25;102596.09;5280823;28;20036;-70
2022/03/20 11:25:27;;;;;;;28.65;24.63;;;;;;;7.86;61.45;102588.97;5282992;28;20397;-68
2022/03/20 11:28:01;;;;;;;28.98;22.90;;;;;;;7.84;62.51;102593.41;5283576;28;20123;-69
2022/03/20 11:30:34;;;;;;;27.58;23.00;;;;;;;7.64;62.40;102592.53;5284881;28;20552;-70
2022/03/20 11:33:09;;;;;;;29.10;23.63;;;;;;;7.77;61.77;102592.84;5284246;28;20020;-70
2022/03/20 11:35:41;;;;;;;30.65;23.88;;;;;;;7.74;62.67;102582.56;5288380;28;20051;-67
2022/03/20 11:38:21;;;;;;;29.38;23.48;;;;;;;7.75;62.87;102592.06;5286853;28;20073;-70
2022/03/20 11:41:12;;;;;;;29.80;24.90;;;;;;;7.85;63.50;102580.31;5287203;28;20059;-68
2022/03/20 11:43:47;;;;;;;29.25;23.50;;;;;;;7.74;63.80;102590.38;5283920;28;20131;-69
2022/03/20 11:46:32;;;;;;;30.15;23.65;;;;;;;7.80;63.19;102598.78;5281805;28;20032;-71
2022/03/20 11:49:20;;;;;;;32.70;23.55;;;;;;;8.00;63.86;102599.63;5286262;28;20036;-71
2022/03/20 11:51:52;;;;;;;28.95;22.63;;;;;;;7.98;64.88;102601.44;5287123;28;20039;-71
2022/03/20 11:54:31;;;;;;;26.88;22.35;;;;;;;8.05;64.13;102587.22;5286062;28;20043;-67
2022/03/20 11:57:29;;;;;;;27.13;22.33;;;;;;;8.07;64.70;102589.72;5283189;28;20443;-70
2022/03/20 12:00:13;;;;;;;27.40;22.92;;;;;;;8.14;64.46;102578.09;5284388;28;20059;-68
2022/03/20 12:02:50;;;;;;;29.30;22.58;;;;;;;8.01;64.25;102585.66;5281914;28;20036;-68
2022/03/20 12:05:39;;;;;;;29.23;22.58;;;;;;;8.16;64.12;102594.53;5284308;28;20025;-67
2022/03/20 12:08:25;;;;;;;30.83;22.88;;;;;;;8.18;64.16;102590.97;5283870;28;20462;-70
2022/03/20 12:11:49;;;;;;;30.73;24.75;;;;;;;8.32;63.98;102579.84;5282632;28;20081;-68
2022/03/20 12:14:36;;;;;;;28.45;23.75;;;;;;;8.23;61.86;102568.06;5236921;28;20535;-69
2022/03/20 12:17:08;;;;;;;29.70;23.35;;;;;;;8.20;60.61;102575.22;5287171;28;20354;-68
2022/03/20 12:19:47;;;;;;;30.20;23.27;;;;;;;8.27;60.90;102574.00;5285081;28;20034;-69
2022/03/20 12:22:19;;;;;;;27.95;22.65;;;;;;;8.34;59.92;102571.94;5284801;28;20077;-68
2022/03/20 12:24:52;;;;;;;28.75;23.52;;;;;;;8.50;58.76;102573.78;5279737;28;20028;-68
2022/03/20 12:27:24;;;;;;;26.08;20.65;;;;;;;8.48;56.16;102570.38;5278206;28;20031;-68